createdAt,value
2023-05-15T00:03:38.182Z,60.59
2023-05-15T00:08:40.186Z,60.76
2023-05-15T00:13:41.624Z,61.00
2023-05-15T00:18:43.027Z,60.90
2023-05-15T00:23:44.433Z,60.99
2023-05-15T00:28:45.839Z,61.38
2023-05-15T00:33:47.524Z,61.57
2023-05-15T00:38:48.934Z,62.06
2023-05-15T00:43:52.168Z,61.98
2023-05-15T00:48:54.804Z,62.49
2023-05-15T00:53:56.796Z,62.43
2023-05-15T00:58:59.890Z,62.39
2023-05-15T01:04:02.418Z,62.62
2023-05-15T01:09:05.325Z,62.83
2023-05-15T01:14:08.653Z,62.99
2023-05-15T01:19:10.204Z,63.08
2023-05-15T01:24:28.021Z,63.10
2023-05-15T01:29:44.353Z,63.21
2023-05-15T01:34:54.938Z,63.35
2023-05-15T01:40:02.373Z,63.44
2023-05-15T01:45:06.045Z,63.63
2023-05-15T01:50:10.059Z,63.58
2023-05-15T01:55:14.606Z,63.97
2023-05-15T02:00:17.225Z,63.80
2023-05-15T02:05:19.104Z,63.86
2023-05-15T02:10:22.052Z,64.15
2023-05-15T02:15:24.871Z,64.50
2023-05-15T02:20:26.381Z,64.15
2023-05-15T02:25:46.692Z,64.14
2023-05-15T02:30:58.029Z,64.19
2023-05-15T02:36:04.400Z,63.94
2023-05-15T02:41:07.561Z,63.88
2023-05-15T02:46:09.316Z,64.33
2023-05-15T02:51:10.850Z,63.96
2023-05-15T02:56:12.319Z,64.01
2023-05-15T03:01:13.790Z,64.36
2023-05-15T03:06:15.259Z,64.32
2023-05-15T03:11:19.137Z,65.14
2023-05-15T03:16:20.732Z,64.72
2023-05-15T03:21:22.194Z,65.12
2023-05-15T03:26:23.612Z,64.94
2023-05-15T03:31:25.229Z,64.82
2023-05-15T03:36:26.730Z,64.76
2023-05-15T03:41:28.235Z,64.83
2023-05-15T03:46:29.654Z,65.12
2023-05-15T03:51:31.358Z,64.83
2023-05-15T03:56:33.050Z,64.77
2023-05-15T04:01:39.334Z,65.11
2023-05-15T04:06:49.787Z,64.83
2023-05-15T04:11:51.200Z,65.20
2023-05-15T04:16:52.694Z,65.49
2023-05-15T04:21:54.036Z,65.42
2023-05-15T04:26:55.393Z,65.25
2023-05-15T04:31:56.900Z,65.13
2023-05-15T04:36:58.478Z,65.59
2023-05-15T04:41:59.847Z,65.26
2023-05-15T04:47:01.241Z,65.50
2023-05-15T04:52:02.707Z,65.82
2023-05-15T04:57:04.191Z,65.51
2023-05-15T05:02:05.761Z,65.29
2023-05-15T05:07:08.019Z,65.54
2023-05-15T05:12:09.649Z,65.61
2023-05-15T05:17:11.231Z,65.84
2023-05-15T05:22:12.622Z,66.04
2023-05-15T05:27:14.074Z,65.94
2023-05-15T05:32:15.557Z,65.99
2023-05-15T05:37:16.884Z,65.81
2023-05-15T05:42:18.249Z,65.63
2023-05-15T05:47:19.614Z,65.56
2023-05-15T05:52:20.984Z,65.35
2023-05-15T05:57:22.458Z,65.07
2023-05-15T06:02:24.437Z,64.83
2023-05-15T06:07:25.993Z,64.39
2023-05-15T06:12:27.966Z,64.44
2023-05-15T06:17:29.399Z,64.42
2023-05-15T06:22:32.957Z,64.03
2023-05-15T06:27:34.424Z,63.92
2023-05-15T06:32:35.868Z,63.70
2023-05-15T06:37:37.599Z,63.34
2023-05-15T06:42:38.989Z,62.80
2023-05-15T06:47:40.341Z,62.31
2023-05-15T06:52:41.713Z,61.85
2023-05-15T06:57:44.115Z,61.32
2023-05-15T07:02:45.689Z,60.96
2023-05-15T07:07:47.331Z,61.07
2023-05-15T07:12:48.669Z,60.09
2023-05-15T07:17:50.175Z,59.96
2023-05-15T07:22:56.291Z,60.08
2023-05-15T07:27:58.297Z,60.07
2023-05-15T07:32:59.735Z,59.39
2023-05-15T07:38:01.367Z,58.96
2023-05-15T07:43:02.750Z,58.85
2023-05-15T07:48:17.975Z,58.63
2023-05-15T07:53:19.816Z,57.82
2023-05-15T07:58:21.495Z,57.12
2023-05-15T08:03:23.186Z,56.75
2023-05-15T08:08:24.779Z,56.34
2023-05-15T08:13:26.208Z,55.88
2023-05-15T08:18:27.629Z,55.52
2023-05-15T08:23:29.102Z,54.57
2023-05-15T08:28:30.518Z,53.98
2023-05-15T08:33:31.929Z,53.00
2023-05-15T08:38:33.521Z,51.03
2023-05-15T08:43:39.039Z,50.16
2023-05-15T08:48:42.192Z,48.74
2023-05-15T08:53:43.965Z,47.40
2023-05-15T08:58:45.525Z,46.14
2023-05-15T09:03:47.102Z,45.56
2023-05-15T09:08:49.946Z,44.63
2023-05-15T09:13:51.362Z,44.22
2023-05-15T09:18:54.217Z,44.50
2023-05-15T09:24:15.760Z,44.21
2023-05-15T09:29:18.923Z,42.82
2023-05-15T09:34:29.873Z,42.35
2023-05-15T09:39:31.222Z,41.88
2023-05-15T09:44:33.946Z,41.49
2023-05-15T09:49:35.596Z,41.45
2023-05-15T09:54:37.949Z,40.30
2023-05-15T09:59:47.901Z,39.52
2023-05-15T10:04:56.938Z,39.54
2023-05-15T10:09:59.145Z,40.43
2023-05-15T10:15:01.727Z,40.71
2023-05-15T10:20:06.910Z,40.81
2023-05-15T10:25:42.170Z,39.97
2023-05-15T10:30:44.000Z,38.84
2023-05-15T10:35:46.890Z,38.22
2023-05-15T10:40:49.407Z,38.73
2023-05-15T10:45:52.459Z,38.67
2023-05-15T10:50:53.983Z,38.10
2023-05-15T10:55:55.534Z,38.94
2023-05-15T11:00:57.302Z,38.39
2023-05-15T11:06:10.165Z,39.25
2023-05-15T11:11:54.701Z,39.18
2023-05-15T11:16:57.964Z,37.89
2023-05-15T11:22:09.088Z,37.75
2023-05-15T11:27:13.192Z,38.46
2023-05-15T11:32:40.584Z,38.24
2023-05-15T11:37:43.867Z,37.68
2023-05-15T11:43:04.623Z,37.80
2023-05-15T11:48:07.967Z,37.30
2023-05-15T11:53:10.232Z,37.23
2023-05-15T11:58:23.052Z,37.64
2023-05-15T12:03:36.097Z,38.32
2023-05-15T12:08:38.474Z,39.18
2023-05-15T12:13:39.820Z,39.68
2023-05-15T12:18:41.195Z,39.83
2023-05-15T12:23:59.896Z,39.83
2023-05-15T12:29:08.318Z,39.79
2023-05-15T12:34:10.681Z,39.20
2023-05-15T12:39:12.742Z,37.12
2023-05-15T12:44:17.601Z,35.84
2023-05-15T12:49:22.705Z,34.57
2023-05-15T12:54:24.302Z,33.80
2023-05-15T12:59:25.760Z,33.34
2023-05-15T13:04:27.723Z,32.99
2023-05-15T13:09:29.506Z,33.05
2023-05-15T13:14:34.661Z,34.03
2023-05-15T13:19:36.057Z,35.71
2023-05-15T13:24:37.540Z,37.19
2023-05-15T13:29:38.914Z,38.31
2023-05-15T13:34:40.515Z,38.08
2023-05-15T13:39:41.847Z,38.84
2023-05-15T13:44:43.409Z,40.66
2023-05-15T13:49:45.538Z,42.41
2023-05-15T13:54:46.883Z,43.31
2023-05-15T13:59:48.506Z,44.84
2023-05-15T14:04:49.874Z,47.48
2023-05-15T14:09:51.643Z,52.27
2023-05-15T14:14:53.125Z,56.37
2023-05-15T14:19:54.730Z,59.18
2023-05-15T14:24:56.096Z,61.23
2023-05-15T14:29:57.515Z,62.38
2023-05-15T14:34:59.836Z,64.51
2023-05-15T14:40:01.548Z,65.59
2023-05-15T14:45:03.190Z,67.19
2023-05-15T14:50:05.113Z,68.69
2023-05-15T14:55:09.577Z,69.16
2023-05-15T15:00:13.264Z,68.73
2023-05-15T15:05:14.634Z,67.67
2023-05-15T15:10:15.981Z,66.94
2023-05-15T15:15:17.865Z,65.68
2023-05-15T15:20:20.478Z,65.40
2023-05-15T15:25:22.128Z,67.49
2023-05-15T15:30:23.629Z,68.32
2023-05-15T15:35:25.297Z,67.82
2023-05-15T15:40:26.941Z,67.47
2023-05-15T15:45:28.514Z,67.09
2023-05-15T15:50:29.979Z,66.44
2023-05-15T15:55:31.360Z,66.78
2023-05-15T16:00:32.744Z,67.06
2023-05-15T16:05:34.116Z,65.97
2023-05-15T16:10:35.564Z,65.92
2023-05-15T16:15:37.024Z,65.41
2023-05-15T16:20:38.910Z,64.52
2023-05-15T16:25:40.475Z,64.32
2023-05-15T16:30:48.814Z,64.03
2023-05-15T16:35:52.336Z,63.75
2023-05-15T16:40:53.997Z,63.02
2023-05-15T16:45:55.645Z,62.23
2023-05-15T16:50:57.013Z,61.30
2023-05-15T16:55:58.515Z,60.95
2023-05-15T17:00:59.886Z,60.48
2023-05-15T17:06:01.359Z,60.25
2023-05-15T17:11:02.762Z,60.12
2023-05-15T17:16:04.306Z,60.06
2023-05-15T17:21:06.191Z,59.66
2023-05-15T17:26:07.538Z,59.98
2023-05-15T17:31:10.350Z,59.27
2023-05-15T17:36:11.774Z,59.22
2023-05-15T17:41:13.119Z,59.29
2023-05-15T17:46:14.567Z,58.93
2023-05-15T17:51:16.138Z,58.80
2023-05-15T17:56:17.847Z,58.35
2023-05-15T18:01:19.934Z,57.99
2023-05-15T18:06:21.661Z,58.03
2023-05-15T18:11:23.303Z,58.06
2023-05-15T18:16:24.903Z,57.86
2023-05-15T18:21:26.477Z,57.45
2023-05-15T18:26:31.212Z,57.09
2023-05-15T18:31:32.854Z,56.73
2023-05-15T18:36:34.504Z,56.69
2023-05-15T18:41:35.869Z,57.10
2023-05-15T18:46:37.984Z,56.81
2023-05-15T18:51:39.409Z,56.71
2023-05-15T18:56:43.147Z,56.18
2023-05-15T19:01:46.335Z,57.04
2023-05-15T19:06:51.029Z,56.62
2023-05-15T19:11:52.501Z,56.93
2023-05-15T19:16:54.220Z,56.98
2023-05-15T19:21:55.667Z,57.00
2023-05-15T19:26:57.035Z,57.20
2023-05-15T19:31:58.482Z,57.57
2023-05-15T19:36:59.908Z,57.90
2023-05-15T19:42:01.386Z,58.00
2023-05-15T19:47:03.468Z,57.95
2023-05-15T19:52:05.714Z,58.87
2023-05-15T19:57:07.150Z,59.06
2023-05-15T20:02:10.454Z,58.82
2023-05-15T20:07:12.833Z,59.12
2023-05-15T20:12:14.297Z,59.22
2023-05-15T20:17:16.149Z,59.61
2023-05-15T20:22:17.542Z,59.78
2023-05-15T20:27:19.174Z,60.27
2023-05-15T20:32:21.648Z,60.60
2023-05-15T20:37:27.583Z,60.42
2023-05-15T20:47:44.929Z,59.65
2023-05-15T20:52:46.556Z,59.39
2023-05-15T20:57:50.157Z,59.43
2023-05-15T21:02:53.565Z,59.69
2023-05-15T21:07:57.522Z,59.32
2023-05-15T21:13:00.590Z,59.14
2023-05-15T21:18:02.696Z,59.12
2023-05-15T21:23:04.298Z,59.33
2023-05-15T21:28:06.590Z,60.17
2023-05-15T21:33:09.487Z,60.06
2023-05-15T21:38:13.556Z,60.79
2023-05-15T21:43:15.005Z,60.55
2023-05-15T21:48:18.957Z,60.53
2023-05-15T21:53:20.564Z,60.73
2023-05-15T21:58:22.034Z,60.47
2023-05-15T22:03:24.116Z,60.59
2023-05-15T22:08:25.670Z,60.88
2023-05-15T22:13:27.548Z,60.97
2023-05-15T22:18:29.020Z,60.67
2023-05-15T22:23:31.433Z,60.77
2023-05-15T22:28:33.863Z,61.08
2023-05-15T22:33:35.593Z,61.12
2023-05-15T22:38:38.501Z,61.11
2023-05-15T22:43:40.082Z,60.85
2023-05-15T22:48:41.868Z,61.25
2023-05-15T22:53:44.701Z,61.37
2023-05-15T22:58:47.880Z,61.38
2023-05-15T23:03:49.492Z,61.48
2023-05-15T23:08:51.246Z,61.59
2023-05-15T23:13:52.769Z,61.87
2023-05-15T23:18:56.606Z,61.87
2023-05-15T23:23:58.263Z,62.13
2023-05-15T23:28:59.871Z,62.46
2023-05-15T23:34:01.371Z,62.19
2023-05-15T23:39:03.256Z,62.48
2023-05-15T23:44:04.873Z,62.34
2023-05-15T23:49:06.291Z,62.60
2023-05-15T23:54:07.949Z,62.63
2023-05-15T23:59:10.460Z,62.55
